sensor_id;sensor_type;location;lat;lon;timestamp;P1;durP1;ratioP1;P2;durP2;ratioP2
71965;SDS011;59836;52.132;5.442;2023-05-10T00:00:59;13.15;;;7.78;;
71965;SDS011;59836;52.132;5.442;2023-05-10T00:03:26;15.05;;;8.65;;
71965;SDS011;59836;52.132;5.442;2023-05-10T00:05:53;15.20;;;8.60;;
71965;SDS011;59836;52.132;5.442;2023-05-10T00:08:20;15.20;;;8.38;;
71965;SDS011;59836;52.132;5.442;2023-05-10T00:10:46;16.23;;;9.15;;
71965;SDS011;59836;52.132;5.442;2023-05-10T00:13:13;14.98;;;8.07;;
71965;SDS011;59836;52.132;5.442;2023-05-10T00:15:39;16.65;;;9.25;;
71965;SDS011;59836;52.132;5.442;2023-05-10T00:18:06;15.60;;;8.57;;
71965;SDS011;59836;52.132;5.442;2023-05-10T00:20:36;16.13;;;8.10;;
71965;SDS011;59836;52.132;5.442;2023-05-10T00:23:02;19.25;;;9.88;;
71965;SDS011;59836;52.132;5.442;2023-05-10T00:25:34;18.33;;;10.02;;
71965;SDS011;59836;52.132;5.442;2023-05-10T00:28:00;16.90;;;9.50;;
71965;SDS011;59836;52.132;5.442;2023-05-10T00:30:27;18.40;;;9.30;;
71965;SDS011;59836;52.132;5.442;2023-05-10T00:32:54;21.02;;;10.13;;
71965;SDS011;59836;52.132;5.442;2023-05-10T00:35:21;20.80;;;10.25;;
71965;SDS011;59836;52.132;5.442;2023-05-10T00:37:51;25.15;;;11.73;;
71965;SDS011;59836;52.132;5.442;2023-05-10T00:40:19;21.60;;;10.90;;
71965;SDS011;59836;52.132;5.442;2023-05-10T00:42:45;21.27;;;11.43;;
71965;SDS011;59836;52.132;5.442;2023-05-10T00:45:12;30.67;;;13.45;;
71965;SDS011;59836;52.132;5.442;2023-05-10T00:47:39;32.25;;;13.57;;
71965;SDS011;59836;52.132;5.442;2023-05-10T00:50:07;28.17;;;13.38;;
71965;SDS011;59836;52.132;5.442;2023-05-10T00:52:34;31.23;;;14.65;;
71965;SDS011;59836;52.132;5.442;2023-05-10T00:55:01;29.83;;;13.90;;
71965;SDS011;59836;52.132;5.442;2023-05-10T00:57:29;31.92;;;14.05;;
71965;SDS011;59836;52.132;5.442;2023-05-10T00:59:56;36.13;;;16.35;;
71965;SDS011;59836;52.132;5.442;2023-05-10T01:02:23;31.85;;;15.35;;
71965;SDS011;59836;52.132;5.442;2023-05-10T01:04:50;33.72;;;15.20;;
71965;SDS011;59836;52.132;5.442;2023-05-10T01:07:18;29.83;;;13.67;;
71965;SDS011;59836;52.132;5.442;2023-05-10T01:09:44;33.45;;;14.80;;
71965;SDS011;59836;52.132;5.442;2023-05-10T01:12:11;36.47;;;15.73;;
71965;SDS011;59836;52.132;5.442;2023-05-10T01:14:38;38.50;;;17.05;;
71965;SDS011;59836;52.132;5.442;2023-05-10T01:17:04;36.35;;;16.73;;
71965;SDS011;59836;52.132;5.442;2023-05-10T01:19:32;33.70;;;15.27;;
71965;SDS011;59836;52.132;5.442;2023-05-10T01:24:55;37.88;;;16.70;;
71965;SDS011;59836;52.132;5.442;2023-05-10T01:27:37;38.15;;;15.95;;
71965;SDS011;59836;52.132;5.442;2023-05-10T01:30:19;31.65;;;15.35;;
71965;SDS011;59836;52.132;5.442;2023-05-10T01:33:06;32.87;;;14.27;;
71965;SDS011;59836;52.132;5.442;2023-05-10T01:35:41;32.33;;;15.13;;
71965;SDS011;59836;52.132;5.442;2023-05-10T01:38:17;35.20;;;14.75;;
71965;SDS011;59836;52.132;5.442;2023-05-10T01:41:18;34.05;;;14.52;;
71965;SDS011;59836;52.132;5.442;2023-05-10T01:43:55;35.63;;;14.80;;
71965;SDS011;59836;52.132;5.442;2023-05-10T01:46:28;39.60;;;15.17;;
71965;SDS011;59836;52.132;5.442;2023-05-10T01:49:03;33.50;;;15.27;;
71965;SDS011;59836;52.132;5.442;2023-05-10T01:51:38;35.63;;;15.65;;
71965;SDS011;59836;52.132;5.442;2023-05-10T01:54:08;32.47;;;14.00;;
71965;SDS011;59836;52.132;5.442;2023-05-10T01:56:38;36.45;;;15.13;;
71965;SDS011;59836;52.132;5.442;2023-05-10T01:59:08;38.27;;;14.97;;
71965;SDS011;59836;52.132;5.442;2023-05-10T02:01:39;41.63;;;16.75;;
71965;SDS011;59836;52.132;5.442;2023-05-10T02:04:07;40.28;;;16.45;;
71965;SDS011;59836;52.132;5.442;2023-05-10T02:06:36;39.33;;;15.68;;
71965;SDS011;59836;52.132;5.442;2023-05-10T02:09:05;36.80;;;15.23;;
71965;SDS011;59836;52.132;5.442;2023-05-10T02:11:34;32.13;;;13.30;;
71965;SDS011;59836;52.132;5.442;2023-05-10T02:14:01;34.33;;;14.40;;
71965;SDS011;59836;52.132;5.442;2023-05-10T02:16:27;38.67;;;16.65;;
71965;SDS011;59836;52.132;5.442;2023-05-10T02:18:57;38.47;;;17.02;;
71965;SDS011;59836;52.132;5.442;2023-05-10T02:21:27;38.58;;;16.45;;
71965;SDS011;59836;52.132;5.442;2023-05-10T02:23:55;41.40;;;16.53;;
71965;SDS011;59836;52.132;5.442;2023-05-10T02:26:23;37.75;;;16.52;;
71965;SDS011;59836;52.132;5.442;2023-05-10T02:28:52;37.72;;;15.75;;
71965;SDS011;59836;52.132;5.442;2023-05-10T02:31:20;36.72;;;15.30;;
71965;SDS011;59836;52.132;5.442;2023-05-10T02:33:48;38.40;;;16.60;;
71965;SDS011;59836;52.132;5.442;2023-05-10T02:36:16;36.97;;;15.83;;
71965;SDS011;59836;52.132;5.442;2023-05-10T02:38:43;38.25;;;16.70;;
71965;SDS011;59836;52.132;5.442;2023-05-10T02:41:11;38.85;;;15.23;;
71965;SDS011;59836;52.132;5.442;2023-05-10T02:43:38;41.80;;;16.25;;
71965;SDS011;59836;52.132;5.442;2023-05-10T02:46:06;39.35;;;16.60;;
71965;SDS011;59836;52.132;5.442;2023-05-10T02:48:33;37.17;;;16.20;;
71965;SDS011;59836;52.132;5.442;2023-05-10T02:51:02;37.50;;;15.82;;
71965;SDS011;59836;52.132;5.442;2023-05-10T02:53:31;36.30;;;15.07;;
71965;SDS011;59836;52.132;5.442;2023-05-10T02:56:00;37.72;;;16.17;;
71965;SDS011;59836;52.132;5.442;2023-05-10T02:58:33;42.95;;;18.00;;
71965;SDS011;59836;52.132;5.442;2023-05-10T03:00:59;42.60;;;16.60;;
71965;SDS011;59836;52.132;5.442;2023-05-10T03:03:26;38.85;;;16.08;;
71965;SDS011;59836;52.132;5.442;2023-05-10T03:05:53;44.85;;;17.23;;
71965;SDS011;59836;52.132;5.442;2023-05-10T03:08:22;43.15;;;16.58;;
71965;SDS011;59836;52.132;5.442;2023-05-10T03:11:37;46.85;;;17.67;;
71965;SDS011;59836;52.132;5.442;2023-05-10T03:13:59;46.70;;;17.13;;
71965;SDS011;59836;52.132;5.442;2023-05-10T03:16:40;48.83;;;16.70;;
71965;SDS011;59836;52.132;5.442;2023-05-10T03:19:28;48.35;;;17.33;;
71965;SDS011;59836;52.132;5.442;2023-05-10T03:21:59;50.78;;;18.58;;
71965;SDS011;59836;52.132;5.442;2023-05-10T03:24:29;55.90;;;19.50;;
71965;SDS011;59836;52.132;5.442;2023-05-10T03:26:56;53.50;;;19.37;;
71965;SDS011;59836;52.132;5.442;2023-05-10T03:29:28;51.83;;;17.92;;
71965;SDS011;59836;52.132;5.442;2023-05-10T03:31:59;50.90;;;19.23;;
71965;SDS011;59836;52.132;5.442;2023-05-10T03:34:26;49.53;;;17.27;;
71965;SDS011;59836;52.132;5.442;2023-05-10T03:36:52;54.35;;;17.77;;
71965;SDS011;59836;52.132;5.442;2023-05-10T03:39:19;52.90;;;18.13;;
71965;SDS011;59836;52.132;5.442;2023-05-10T03:41:47;52.55;;;17.70;;
71965;SDS011;59836;52.132;5.442;2023-05-10T03:44:13;56.22;;;19.67;;
71965;SDS011;59836;52.132;5.442;2023-05-10T03:46:40;49.45;;;17.15;;
71965;SDS011;59836;52.132;5.442;2023-05-10T03:49:06;55.45;;;17.70;;
71965;SDS011;59836;52.132;5.442;2023-05-10T03:51:33;51.10;;;17.20;;
71965;SDS011;59836;52.132;5.442;2023-05-10T03:53:59;54.75;;;17.83;;
71965;SDS011;59836;52.132;5.442;2023-05-10T03:56:25;48.88;;;17.17;;
71965;SDS011;59836;52.132;5.442;2023-05-10T03:58:52;46.88;;;16.60;;
71965;SDS011;59836;52.132;5.442;2023-05-10T04:01:18;53.25;;;17.88;;
71965;SDS011;59836;52.132;5.442;2023-05-10T04:03:45;55.53;;;17.90;;
71965;SDS011;59836;52.132;5.442;2023-05-10T04:06:11;48.95;;;16.90;;
71965;SDS011;59836;52.132;5.442;2023-05-10T04:08:38;54.05;;;18.27;;
71965;SDS011;59836;52.132;5.442;2023-05-10T04:11:05;51.17;;;17.65;;
71965;SDS011;59836;52.132;5.442;2023-05-10T04:13:35;53.20;;;19.60;;
71965;SDS011;59836;52.132;5.442;2023-05-10T04:16:02;49.93;;;16.50;;
71965;SDS011;59836;52.132;5.442;2023-05-10T04:18:28;50.50;;;18.58;;
71965;SDS011;59836;52.132;5.442;2023-05-10T04:20:55;55.45;;;18.40;;
71965;SDS011;59836;52.132;5.442;2023-05-10T04:23:21;51.97;;;17.67;;
71965;SDS011;59836;52.132;5.442;2023-05-10T04:25:48;50.90;;;18.73;;
71965;SDS011;59836;52.132;5.442;2023-05-10T04:28:14;44.23;;;16.67;;
71965;SDS011;59836;52.132;5.442;2023-05-10T04:30:40;46.20;;;16.85;;
71965;SDS011;59836;52.132;5.442;2023-05-10T04:33:07;44.83;;;17.38;;
71965;SDS011;59836;52.132;5.442;2023-05-10T04:35:34;41.05;;;15.55;;
71965;SDS011;59836;52.132;5.442;2023-05-10T04:38:01;48.03;;;17.08;;
71965;SDS011;59836;52.132;5.442;2023-05-10T04:40:27;48.83;;;18.50;;
71965;SDS011;59836;52.132;5.442;2023-05-10T04:42:53;48.97;;;18.02;;
71965;SDS011;59836;52.132;5.442;2023-05-10T04:45:20;49.58;;;17.20;;
71965;SDS011;59836;52.132;5.442;2023-05-10T04:47:46;49.88;;;18.20;;
71965;SDS011;59836;52.132;5.442;2023-05-10T04:50:13;47.35;;;16.85;;
71965;SDS011;59836;52.132;5.442;2023-05-10T04:52:40;49.00;;;17.37;;
71965;SDS011;59836;52.132;5.442;2023-05-10T04:55:06;48.10;;;16.95;;
71965;SDS011;59836;52.132;5.442;2023-05-10T04:57:35;51.90;;;17.00;;
71965;SDS011;59836;52.132;5.442;2023-05-10T05:00:02;52.58;;;18.15;;
71965;SDS011;59836;52.132;5.442;2023-05-10T05:02:29;56.70;;;18.45;;
71965;SDS011;59836;52.132;5.442;2023-05-10T05:04:55;50.00;;;17.60;;
71965;SDS011;59836;52.132;5.442;2023-05-10T05:07:23;51.65;;;17.75;;
71965;SDS011;59836;52.132;5.442;2023-05-10T05:09:50;55.10;;;18.80;;
71965;SDS011;59836;52.132;5.442;2023-05-10T05:12:16;50.05;;;18.20;;
71965;SDS011;59836;52.132;5.442;2023-05-10T05:14:45;54.17;;;18.58;;
71965;SDS011;59836;52.132;5.442;2023-05-10T05:17:19;47.33;;;17.33;;
71965;SDS011;59836;52.132;5.442;2023-05-10T05:19:45;52.53;;;17.58;;
71965;SDS011;59836;52.132;5.442;2023-05-10T05:22:23;55.58;;;18.52;;
71965;SDS011;59836;52.132;5.442;2023-05-10T05:24:55;56.42;;;18.35;;
71965;SDS011;59836;52.132;5.442;2023-05-10T05:27:24;55.25;;;18.15;;
71965;SDS011;59836;52.132;5.442;2023-05-10T05:29:52;48.60;;;16.40;;
71965;SDS011;59836;52.132;5.442;2023-05-10T05:32:19;56.15;;;18.63;;
71965;SDS011;59836;52.132;5.442;2023-05-10T05:34:46;55.15;;;19.35;;
71965;SDS011;59836;52.132;5.442;2023-05-10T05:37:16;60.88;;;17.90;;
71965;SDS011;59836;52.132;5.442;2023-05-10T05:39:46;54.22;;;19.30;;
71965;SDS011;59836;52.132;5.442;2023-05-10T05:42:12;53.97;;;18.10;;
71965;SDS011;59836;52.132;5.442;2023-05-10T05:44:39;56.40;;;19.08;;
71965;SDS011;59836;52.132;5.442;2023-05-10T05:47:06;50.90;;;18.40;;
71965;SDS011;59836;52.132;5.442;2023-05-10T05:49:32;49.45;;;19.02;;
71965;SDS011;59836;52.132;5.442;2023-05-10T05:51:59;54.75;;;19.77;;
71965;SDS011;59836;52.132;5.442;2023-05-10T05:54:30;54.10;;;18.97;;
71965;SDS011;59836;52.132;5.442;2023-05-10T05:56:57;52.75;;;19.42;;
71965;SDS011;59836;52.132;5.442;2023-05-10T05:59:26;47.25;;;19.25;;
71965;SDS011;59836;52.132;5.442;2023-05-10T06:01:53;49.25;;;17.98;;
71965;SDS011;59836;52.132;5.442;2023-05-10T06:04:20;50.03;;;18.85;;
71965;SDS011;59836;52.132;5.442;2023-05-10T06:06:46;53.20;;;18.10;;
71965;SDS011;59836;52.132;5.442;2023-05-10T06:09:13;45.50;;;17.13;;
71965;SDS011;59836;52.132;5.442;2023-05-10T06:11:39;50.92;;;18.15;;
71965;SDS011;59836;52.132;5.442;2023-05-10T06:14:06;44.03;;;18.60;;
71965;SDS011;59836;52.132;5.442;2023-05-10T06:16:34;45.53;;;17.38;;
71965;SDS011;59836;52.132;5.442;2023-05-10T06:19:01;38.67;;;15.87;;
71965;SDS011;59836;52.132;5.442;2023-05-10T06:21:28;42.10;;;16.63;;
71965;SDS011;59836;52.132;5.442;2023-05-10T06:23:55;42.33;;;17.38;;
71965;SDS011;59836;52.132;5.442;2023-05-10T06:26:21;43.55;;;16.65;;
71965;SDS011;59836;52.132;5.442;2023-05-10T06:28:48;44.80;;;16.35;;
71965;SDS011;59836;52.132;5.442;2023-05-10T06:31:14;39.00;;;16.63;;
71965;SDS011;59836;52.132;5.442;2023-05-10T06:33:41;47.10;;;17.63;;
71965;SDS011;59836;52.132;5.442;2023-05-10T06:36:07;43.60;;;17.00;;
71965;SDS011;59836;52.132;5.442;2023-05-10T06:38:34;40.25;;;14.88;;
71965;SDS011;59836;52.132;5.442;2023-05-10T06:41:00;38.75;;;14.98;;
71965;SDS011;59836;52.132;5.442;2023-05-10T06:43:27;38.17;;;14.73;;
71965;SDS011;59836;52.132;5.442;2023-05-10T06:45:54;36.35;;;13.63;;
71965;SDS011;59836;52.132;5.442;2023-05-10T06:48:21;35.20;;;13.93;;
71965;SDS011;59836;52.132;5.442;2023-05-10T06:50:48;33.03;;;13.45;;
71965;SDS011;59836;52.132;5.442;2023-05-10T06:53:14;33.85;;;12.93;;
71965;SDS011;59836;52.132;5.442;2023-05-10T06:55:41;30.23;;;12.10;;
71965;SDS011;59836;52.132;5.442;2023-05-10T06:58:07;28.52;;;12.50;;
71965;SDS011;59836;52.132;5.442;2023-05-10T07:00:34;31.30;;;12.38;;
71965;SDS011;59836;52.132;5.442;2023-05-10T07:03:00;30.63;;;11.73;;
71965;SDS011;59836;52.132;5.442;2023-05-10T07:05:27;31.27;;;11.10;;
71965;SDS011;59836;52.132;5.442;2023-05-10T07:07:54;22.07;;;8.70;;
71965;SDS011;59836;52.132;5.442;2023-05-10T07:10:20;19.67;;;9.35;;
71965;SDS011;59836;52.132;5.442;2023-05-10T07:12:47;24.58;;;10.05;;
71965;SDS011;59836;52.132;5.442;2023-05-10T07:15:13;22.67;;;9.23;;
71965;SDS011;59836;52.132;5.442;2023-05-10T07:17:40;21.73;;;8.68;;
71965;SDS011;59836;52.132;5.442;2023-05-10T07:20:10;19.37;;;7.93;;
71965;SDS011;59836;52.132;5.442;2023-05-10T07:22:36;16.73;;;7.13;;
71965;SDS011;59836;52.132;5.442;2023-05-10T07:25:03;16.80;;;7.90;;
71965;SDS011;59836;52.132;5.442;2023-05-10T07:27:30;16.40;;;6.72;;
71965;SDS011;59836;52.132;5.442;2023-05-10T07:29:56;17.23;;;7.55;;
71965;SDS011;59836;52.132;5.442;2023-05-10T07:32:22;15.97;;;7.37;;
71965;SDS011;59836;52.132;5.442;2023-05-10T07:34:49;16.15;;;6.55;;
71965;SDS011;59836;52.132;5.442;2023-05-10T07:37:15;15.13;;;7.78;;
71965;SDS011;59836;52.132;5.442;2023-05-10T07:39:42;13.77;;;7.05;;
71965;SDS011;59836;52.132;5.442;2023-05-10T07:42:08;14.52;;;7.13;;
71965;SDS011;59836;52.132;5.442;2023-05-10T07:44:35;16.20;;;7.03;;
71965;SDS011;59836;52.132;5.442;2023-05-10T07:47:01;15.00;;;7.05;;
71965;SDS011;59836;52.132;5.442;2023-05-10T07:49:28;16.30;;;7.60;;
71965;SDS011;59836;52.132;5.442;2023-05-10T07:51:54;14.48;;;7.10;;
71965;SDS011;59836;52.132;5.442;2023-05-10T07:54:21;16.35;;;8.20;;
71965;SDS011;59836;52.132;5.442;2023-05-10T07:56:47;17.10;;;6.93;;
71965;SDS011;59836;52.132;5.442;2023-05-10T07:59:14;19.42;;;7.72;;
71965;SDS011;59836;52.132;5.442;2023-05-10T08:01:43;17.83;;;7.75;;
71965;SDS011;59836;52.132;5.442;2023-05-10T08:04:09;16.77;;;7.53;;
71965;SDS011;59836;52.132;5.442;2023-05-10T08:06:36;16.85;;;7.78;;
71965;SDS011;59836;52.132;5.442;2023-05-10T08:09:02;16.90;;;7.27;;
71965;SDS011;59836;52.132;5.442;2023-05-10T08:11:29;15.15;;;6.80;;
71965;SDS011;59836;52.132;5.442;2023-05-10T08:13:55;15.30;;;6.90;;
71965;SDS011;59836;52.132;5.442;2023-05-10T08:16:22;12.45;;;5.93;;
71965;SDS011;59836;52.132;5.442;2023-05-10T08:18:48;16.30;;;6.90;;
71965;SDS011;59836;52.132;5.442;2023-05-10T08:21:16;15.17;;;7.10;;
71965;SDS011;59836;52.132;5.442;2023-05-10T08:23:43;13.88;;;6.15;;
71965;SDS011;59836;52.132;5.442;2023-05-10T08:26:10;12.43;;;7.07;;
71965;SDS011;59836;52.132;5.442;2023-05-10T08:28:36;12.00;;;6.45;;
71965;SDS011;59836;52.132;5.442;2023-05-10T08:31:03;13.75;;;7.07;;
71965;SDS011;59836;52.132;5.442;2023-05-10T08:33:30;12.23;;;6.47;;
71965;SDS011;59836;52.132;5.442;2023-05-10T08:35:57;16.50;;;7.68;;
71965;SDS011;59836;52.132;5.442;2023-05-10T08:38:23;15.38;;;7.57;;
71965;SDS011;59836;52.132;5.442;2023-05-10T08:40:51;14.00;;;7.45;;
71965;SDS011;59836;52.132;5.442;2023-05-10T08:43:22;16.17;;;8.25;;
71965;SDS011;59836;52.132;5.442;2023-05-10T08:45:55;15.90;;;7.10;;
71965;SDS011;59836;52.132;5.442;2023-05-10T08:48:25;17.20;;;7.85;;
71965;SDS011;59836;52.132;5.442;2023-05-10T08:50:53;16.35;;;8.23;;
71965;SDS011;59836;52.132;5.442;2023-05-10T08:53:24;18.63;;;8.13;;
71965;SDS011;59836;52.132;5.442;2023-05-10T08:55:52;16.98;;;8.40;;
71965;SDS011;59836;52.132;5.442;2023-05-10T08:58:19;16.57;;;8.37;;
71965;SDS011;59836;52.132;5.442;2023-05-10T09:00:49;16.65;;;7.75;;
71965;SDS011;59836;52.132;5.442;2023-05-10T09:03:18;18.48;;;9.13;;
71965;SDS011;59836;52.132;5.442;2023-05-10T09:05:45;15.98;;;8.48;;
71965;SDS011;59836;52.132;5.442;2023-05-10T09:08:12;15.18;;;8.68;;
71965;SDS011;59836;52.132;5.442;2023-05-10T09:10:42;14.20;;;7.33;;
71965;SDS011;59836;52.132;5.442;2023-05-10T09:13:10;16.23;;;7.75;;
71965;SDS011;59836;52.132;5.442;2023-05-10T09:15:38;13.32;;;7.38;;
71965;SDS011;59836;52.132;5.442;2023-05-10T09:18:04;14.65;;;7.10;;
71965;SDS011;59836;52.132;5.442;2023-05-10T09:20:31;12.90;;;7.20;;
71965;SDS011;59836;52.132;5.442;2023-05-10T09:22:57;12.50;;;6.43;;
71965;SDS011;59836;52.132;5.442;2023-05-10T09:25:24;13.35;;;6.63;;
71965;SDS011;59836;52.132;5.442;2023-05-10T09:27:50;10.52;;;6.20;;
71965;SDS011;59836;52.132;5.442;2023-05-10T09:30:25;11.63;;;5.20;;
71965;SDS011;59836;52.132;5.442;2023-05-10T09:32:53;9.43;;;5.38;;
71965;SDS011;59836;52.132;5.442;2023-05-10T09:35:21;9.40;;;4.40;;
71965;SDS011;59836;52.132;5.442;2023-05-10T09:37:54;7.53;;;3.92;;
71965;SDS011;59836;52.132;5.442;2023-05-10T09:40:22;7.10;;;3.20;;
71965;SDS011;59836;52.132;5.442;2023-05-10T09:45:23;6.57;;;4.00;;
71965;SDS011;59836;52.132;5.442;2023-05-10T09:47:52;6.07;;;3.27;;
71965;SDS011;59836;52.132;5.442;2023-05-10T09:50:19;5.40;;;3.30;;
71965;SDS011;59836;52.132;5.442;2023-05-10T09:52:47;5.55;;;3.05;;
71965;SDS011;59836;52.132;5.442;2023-05-10T09:55:19;6.72;;;3.20;;
71965;SDS011;59836;52.132;5.442;2023-05-10T09:57:48;6.20;;;3.08;;
71965;SDS011;59836;52.132;5.442;2023-05-10T10:00:24;6.27;;;3.43;;
71965;SDS011;59836;52.132;5.442;2023-05-10T10:02:57;7.10;;;3.38;;
71965;SDS011;59836;52.132;5.442;2023-05-10T10:05:31;6.45;;;3.72;;
71965;SDS011;59836;52.132;5.442;2023-05-10T10:07:58;6.70;;;3.63;;
71965;SDS011;59836;52.132;5.442;2023-05-10T10:10:27;6.88;;;3.67;;
71965;SDS011;59836;52.132;5.442;2023-05-10T10:12:54;7.03;;;3.80;;
71965;SDS011;59836;52.132;5.442;2023-05-10T10:15:21;7.53;;;3.90;;
71965;SDS011;59836;52.132;5.442;2023-05-10T10:17:48;6.53;;;4.32;;
71965;SDS011;59836;52.132;5.442;2023-05-10T10:20:16;9.05;;;3.78;;
71965;SDS011;59836;52.132;5.442;2023-05-10T10:22:43;6.50;;;3.75;;
71965;SDS011;59836;52.132;5.442;2023-05-10T10:25:11;6.30;;;3.87;;
71965;SDS011;59836;52.132;5.442;2023-05-10T10:30:18;7.63;;;4.10;;
71965;SDS011;59836;52.132;5.442;2023-05-10T10:35:53;9.18;;;4.45;;
71965;SDS011;59836;52.132;5.442;2023-05-10T10:38:21;6.77;;;3.77;;
71965;SDS011;59836;52.132;5.442;2023-05-10T10:40:48;7.30;;;4.00;;
71965;SDS011;59836;52.132;5.442;2023-05-10T10:43:28;8.05;;;4.38;;
71965;SDS011;59836;52.132;5.442;2023-05-10T10:46:15;9.07;;;4.55;;
71965;SDS011;59836;52.132;5.442;2023-05-10T10:48:47;9.82;;;4.80;;
71965;SDS011;59836;52.132;5.442;2023-05-10T10:51:15;10.23;;;4.60;;
71965;SDS011;59836;52.132;5.442;2023-05-10T10:53:42;9.48;;;4.63;;
71965;SDS011;59836;52.132;5.442;2023-05-10T10:56:10;8.35;;;4.53;;
71965;SDS011;59836;52.132;5.442;2023-05-10T10:58:40;9.18;;;4.80;;
71965;SDS011;59836;52.132;5.442;2023-05-10T11:01:17;10.10;;;4.90;;
71965;SDS011;59836;52.132;5.442;2023-05-10T11:06:30;10.80;;;4.88;;
71965;SDS011;59836;52.132;5.442;2023-05-10T11:08:57;7.30;;;4.20;;
71965;SDS011;59836;52.132;5.442;2023-05-10T11:11:24;6.72;;;4.03;;
71965;SDS011;59836;52.132;5.442;2023-05-10T11:13:51;7.15;;;3.85;;
71965;SDS011;59836;52.132;5.442;2023-05-10T11:16:19;9.67;;;4.00;;
71965;SDS011;59836;52.132;5.442;2023-05-10T11:21:23;7.15;;;3.65;;
71965;SDS011;59836;52.132;5.442;2023-05-10T11:23:51;6.53;;;3.58;;
71965;SDS011;59836;52.132;5.442;2023-05-10T11:26:23;7.55;;;4.00;;
71965;SDS011;59836;52.132;5.442;2023-05-10T11:29:00;6.80;;;3.53;;
71965;SDS011;59836;52.132;5.442;2023-05-10T11:31:28;7.90;;;3.72;;
71965;SDS011;59836;52.132;5.442;2023-05-10T11:33:58;6.63;;;4.00;;
71965;SDS011;59836;52.132;5.442;2023-05-10T11:36:26;7.90;;;4.10;;
71965;SDS011;59836;52.132;5.442;2023-05-10T11:38:54;6.88;;;4.22;;
71965;SDS011;59836;52.132;5.442;2023-05-10T11:41:22;7.67;;;3.53;;
71965;SDS011;59836;52.132;5.442;2023-05-10T11:43:49;9.57;;;4.28;;
71965;SDS011;59836;52.132;5.442;2023-05-10T11:46:18;5.82;;;3.75;;
71965;SDS011;59836;52.132;5.442;2023-05-10T11:48:47;6.70;;;3.60;;
71965;SDS011;59836;52.132;5.442;2023-05-10T11:51:20;7.13;;;4.10;;
71965;SDS011;59836;52.132;5.442;2023-05-10T11:53:48;6.87;;;3.50;;
71965;SDS011;59836;52.132;5.442;2023-05-10T11:56:16;7.07;;;3.40;;
71965;SDS011;59836;52.132;5.442;2023-05-10T11:58:43;5.72;;;3.40;;
71965;SDS011;59836;52.132;5.442;2023-05-10T12:01:09;5.88;;;3.25;;
71965;SDS011;59836;52.132;5.442;2023-05-10T12:03:36;5.57;;;3.00;;
71965;SDS011;59836;52.132;5.442;2023-05-10T12:06:04;4.67;;;3.60;;
71965;SDS011;59836;52.132;5.442;2023-05-10T12:08:31;6.90;;;3.35;;
71965;SDS011;59836;52.132;5.442;2023-05-10T12:11:07;5.53;;;3.15;;
71965;SDS011;59836;52.132;5.442;2023-05-10T12:13:39;4.97;;;3.00;;
71965;SDS011;59836;52.132;5.442;2023-05-10T12:16:17;6.68;;;3.03;;
71965;SDS011;59836;52.132;5.442;2023-05-10T12:18:45;4.03;;;2.50;;
71965;SDS011;59836;52.132;5.442;2023-05-10T12:21:14;5.50;;;3.08;;
71965;SDS011;59836;52.132;5.442;2023-05-10T12:23:41;4.82;;;2.60;;
71965;SDS011;59836;52.132;5.442;2023-05-10T12:26:10;4.03;;;2.28;;
71965;SDS011;59836;52.132;5.442;2023-05-10T12:28:37;3.88;;;2.40;;
71965;SDS011;59836;52.132;5.442;2023-05-10T12:31:06;5.97;;;2.00;;
71965;SDS011;59836;52.132;5.442;2023-05-10T12:33:36;3.45;;;2.00;;
71965;SDS011;59836;52.132;5.442;2023-05-10T12:36:08;3.17;;;2.38;;
71965;SDS011;59836;52.132;5.442;2023-05-10T12:38:37;4.88;;;1.95;;
71965;SDS011;59836;52.132;5.442;2023-05-10T12:41:12;4.72;;;2.78;;
71965;SDS011;59836;52.132;5.442;2023-05-10T12:43:41;4.63;;;2.67;;
71965;SDS011;59836;52.132;5.442;2023-05-10T12:46:08;3.60;;;2.28;;
71965;SDS011;59836;52.132;5.442;2023-05-10T12:48:36;4.50;;;1.88;;
71965;SDS011;59836;52.132;5.442;2023-05-10T12:51:04;2.55;;;1.55;;
71965;SDS011;59836;52.132;5.442;2023-05-10T12:53:31;3.33;;;2.08;;
71965;SDS011;59836;52.132;5.442;2023-05-10T12:55:57;4.13;;;1.70;;
71965;SDS011;59836;52.132;5.442;2023-05-10T12:58:24;4.10;;;1.92;;
71965;SDS011;59836;52.132;5.442;2023-05-10T13:01:00;5.78;;;2.83;;
71965;SDS011;59836;52.132;5.442;2023-05-10T13:03:27;3.97;;;2.53;;
71965;SDS011;59836;52.132;5.442;2023-05-10T13:05:53;4.07;;;2.28;;
71965;SDS011;59836;52.132;5.442;2023-05-10T13:08:20;3.30;;;1.73;;
71965;SDS011;59836;52.132;5.442;2023-05-10T13:10:46;4.10;;;1.88;;
71965;SDS011;59836;52.132;5.442;2023-05-10T13:13:12;5.07;;;2.65;;
71965;SDS011;59836;52.132;5.442;2023-05-10T13:15:40;5.07;;;1.77;;
71965;SDS011;59836;52.132;5.442;2023-05-10T13:18:06;3.75;;;2.10;;
71965;SDS011;59836;52.132;5.442;2023-05-10T13:20:33;3.90;;;2.00;;
71965;SDS011;59836;52.132;5.442;2023-05-10T13:22:59;5.03;;;2.10;;
71965;SDS011;59836;52.132;5.442;2023-05-10T13:25:25;4.68;;;2.30;;
71965;SDS011;59836;52.132;5.442;2023-05-10T13:27:52;4.72;;;3.15;;
71965;SDS011;59836;52.132;5.442;2023-05-10T13:30:18;5.80;;;3.60;;
71965;SDS011;59836;52.132;5.442;2023-05-10T13:32:44;8.13;;;4.13;;
71965;SDS011;59836;52.132;5.442;2023-05-10T13:35:11;8.10;;;4.10;;
71965;SDS011;59836;52.132;5.442;2023-05-10T13:37:38;7.40;;;3.72;;
71965;SDS011;59836;52.132;5.442;2023-05-10T13:40:04;9.57;;;4.18;;
71965;SDS011;59836;52.132;5.442;2023-05-10T13:42:32;9.35;;;4.20;;
71965;SDS011;59836;52.132;5.442;2023-05-10T13:44:59;7.53;;;3.17;;
71965;SDS011;59836;52.132;5.442;2023-05-10T13:47:27;9.68;;;4.18;;
71965;SDS011;59836;52.132;5.442;2023-05-10T13:49:54;7.43;;;3.72;;
71965;SDS011;59836;52.132;5.442;2023-05-10T13:52:21;6.63;;;3.42;;
71965;SDS011;59836;52.132;5.442;2023-05-10T13:54:47;7.18;;;3.70;;
71965;SDS011;59836;52.132;5.442;2023-05-10T13:57:14;9.10;;;3.90;;
71965;SDS011;59836;52.132;5.442;2023-05-10T13:59:42;8.25;;;3.40;;
71965;SDS011;59836;52.132;5.442;2023-05-10T14:02:09;6.57;;;3.65;;
71965;SDS011;59836;52.132;5.442;2023-05-10T14:04:35;7.18;;;3.38;;
71965;SDS011;59836;52.132;5.442;2023-05-10T14:07:01;7.00;;;3.75;;
71965;SDS011;59836;52.132;5.442;2023-05-10T14:09:28;9.17;;;4.13;;
71965;SDS011;59836;52.132;5.442;2023-05-10T14:11:54;5.47;;;3.53;;
71965;SDS011;59836;52.132;5.442;2023-05-10T14:14:21;8.00;;;4.40;;
71965;SDS011;59836;52.132;5.442;2023-05-10T14:16:48;5.75;;;3.13;;
71965;SDS011;59836;52.132;5.442;2023-05-10T14:19:14;9.73;;;4.03;;
71965;SDS011;59836;52.132;5.442;2023-05-10T14:21:41;7.63;;;3.43;;
71965;SDS011;59836;52.132;5.442;2023-05-10T14:24:07;6.60;;;3.50;;
71965;SDS011;59836;52.132;5.442;2023-05-10T14:26:34;8.35;;;4.20;;
71965;SDS011;59836;52.132;5.442;2023-05-10T14:29:00;7.22;;;3.58;;
71965;SDS011;59836;52.132;5.442;2023-05-10T14:31:27;7.13;;;4.38;;
71965;SDS011;59836;52.132;5.442;2023-05-10T14:33:56;7.30;;;3.93;;
71965;SDS011;59836;52.132;5.442;2023-05-10T14:36:23;9.23;;;3.88;;
71965;SDS011;59836;52.132;5.442;2023-05-10T14:38:50;8.32;;;4.75;;
71965;SDS011;59836;52.132;5.442;2023-05-10T14:41:17;9.48;;;4.28;;
71965;SDS011;59836;52.132;5.442;2023-05-10T14:43:43;9.57;;;4.38;;
71965;SDS011;59836;52.132;5.442;2023-05-10T14:46:10;9.13;;;4.50;;
71965;SDS011;59836;52.132;5.442;2023-05-10T14:48:36;8.48;;;4.80;;
71965;SDS011;59836;52.132;5.442;2023-05-10T14:51:03;9.00;;;4.50;;
71965;SDS011;59836;52.132;5.442;2023-05-10T14:53:29;9.25;;;4.38;;
71965;SDS011;59836;52.132;5.442;2023-05-10T14:55:56;9.57;;;4.53;;